This is the latest recevied weather packets stored in our database for station/object DM3FAM-10. If no packets are shown the sender has not sent any weather packets the latest 10 day(s).
| Time | Temp. | Humidity | Pressure | Rain* | Wind** | Luminosity | Snow |
|---|---|---|---|---|---|---|---|
| 1777417883 | 9.44° C | 98% | 967.9 hPa | - | - | - | - |
| 1777416983 | 9.44° C | 99% | 967.9 hPa | - | - | - | - |
| 1777416083 | 9.44° C | 98% | 968 hPa | - | - | - | - |
| 1777415182 | 10° C | 95% | 968.1 hPa | - | - | - | - |
| 1777414282 | 10.56° C | 93% | 968 hPa | - | - | - | - |
| 1777413382 | 10.56° C | 92% | 967.9 hPa | - | - | - | - |
| 1777412482 | 10.56° C | 97% | 967.9 hPa | - | - | - | - |
| 1777411582 | 10.56° C | 100% | 967.8 hPa | - | - | - | - |
| 1777410682 | 10.56° C | 96% | 967.7 hPa | - | - | - | - |
| 1777409782 | 10.56° C | 100% | 967.6 hPa | - | - | - | - |
| 1777408882 | 10° C | 100% | 967.5 hPa | - | - | - | - |
| 1777407982 | 10° C | 100% | 967.5 hPa | - | - | - | - |
| 1777407082 | 10.56° C | 93% | 967.4 hPa | - | - | - | - |
| 1777406182 | 11.11° C | 92% | 967.4 hPa | - | - | - | - |
| 1777405282 | 10.56° C | 99% | 967.4 hPa | - | - | - | - |
| 1777404382 | 11.11° C | 100% | 967.3 hPa | - | - | - | - |
| 1777403482 | 11.67° C | 99% | 967.1 hPa | - | - | - | - |
| 1777402582 | 12.78° C | 93% | 966.8 hPa | - | - | - | - |
| 1777401682 | 12.78° C | 99% | 966.8 hPa | - | - | - | - |
| 1777400782 | 13.33° C | 100% | 966.7 hPa | - | - | - | - |
| 1777399882 | 14.44° C | 100% | 966.7 hPa | - | - | - | - |
| 1777398982 | 15.56° C | 95% | 966.7 hPa | - | - | - | - |
| 1777398081 | 16.11° C | 100% | 966.5 hPa | - | - | - | - |
| 1777397181 | 17.22° C | 93% | 966.5 hPa | - | - | - | - |
| 1777396281 | 17.78° C | 94% | 966.3 hPa | - | - | - | - |
* Rain since midnight (hover to see other rain measurements)
** Current wind speed in m/s (hover to see current wind gust speed)